createdAt,value
2018-07-28T00:00:23.876Z,99891.09
2018-07-28T00:02:54.665Z,99888.25
2018-07-28T00:05:25.643Z,99885.70
2018-07-28T00:07:56.648Z,99895.33
2018-07-28T00:10:27.746Z,99888.00
2018-07-28T00:12:58.680Z,99889.89
2018-07-28T00:15:29.613Z,99890.33
2018-07-28T00:18:00.565Z,99898.11
2018-07-28T00:20:31.596Z,99896.46
2018-07-28T00:23:02.870Z,99896.16
2018-07-28T00:25:38.691Z,99895.27
2018-07-28T00:28:09.001Z,99894.13
2018-07-28T00:30:38.924Z,99889.72
2018-07-28T00:33:08.780Z,99885.28
2018-07-28T00:35:38.748Z,99884.62
2018-07-28T00:38:08.634Z,99878.54
2018-07-28T00:40:39.636Z,99876.59
2018-07-28T00:43:10.616Z,99884.36
2018-07-28T00:45:43.002Z,99883.76
2018-07-28T00:48:12.834Z,99882.65
2018-07-28T00:50:44.040Z,99886.09
2018-07-28T00:53:14.830Z,99882.25
2018-07-28T00:55:48.643Z,99881.14
2018-07-28T00:58:18.541Z,99879.80
2018-07-28T01:00:48.593Z,99868.40
2018-07-28T01:03:18.486Z,99868.09
2018-07-28T01:05:49.865Z,99862.72
2018-07-28T01:08:20.673Z,99861.07
2018-07-28T01:10:51.676Z,99855.39
2018-07-28T01:13:22.526Z,99853.44
2018-07-28T01:15:55.030Z,99850.95
2018-07-28T01:18:24.876Z,99846.85
2018-07-28T01:20:55.845Z,99851.93
2018-07-28T01:23:26.698Z,99855.87
2018-07-28T01:25:57.589Z,99851.23
2018-07-28T01:28:29.930Z,99850.42
2018-07-28T01:30:59.964Z,99845.25
2018-07-28T01:33:30.739Z,99842.80
2018-07-28T01:36:02.681Z,99843.53
2018-07-28T01:38:32.847Z,99846.42
2018-07-28T01:41:03.742Z,99844.72
2018-07-28T01:43:34.610Z,99844.62
2018-07-28T01:46:05.629Z,99846.94
2018-07-28T01:48:36.945Z,99848.28
2018-07-28T01:51:07.872Z,99847.38
2018-07-28T01:53:38.687Z,99845.42
2018-07-28T01:56:09.758Z,99838.41
2018-07-28T01:58:40.733Z,99846.16
2018-07-28T02:01:11.616Z,99846.88
2018-07-28T02:03:42.867Z,99844.62
2018-07-28T02:06:13.751Z,99839.98
2018-07-28T02:08:44.679Z,99841.56
2018-07-28T02:11:15.617Z,99838.03
2018-07-28T02:13:46.602Z,99848.62
2018-07-28T02:16:19.064Z,99843.67
2018-07-28T02:18:48.918Z,99847.84
2018-07-28T02:21:19.803Z,99851.39
2018-07-28T02:23:50.648Z,99851.09
2018-07-28T02:26:21.709Z,99856.70
2018-07-28T02:28:53.686Z,99857.20
2018-07-28T02:31:23.840Z,99867.15
2018-07-28T02:33:53.778Z,99863.63
2018-07-28T02:36:24.661Z,99861.16
2018-07-28T02:38:56.522Z,99858.48
2018-07-28T02:41:26.490Z,99852.80
2018-07-28T02:43:57.952Z,99857.94
2018-07-28T02:46:28.805Z,99849.27
2018-07-28T02:48:59.631Z,99848.97
2018-07-28T02:51:31.051Z,99844.33
2018-07-28T02:54:01.742Z,99846.20
2018-07-28T02:56:32.626Z,99841.34
2018-07-28T02:59:04.540Z,99842.68
2018-07-28T03:01:35.059Z,99844.56
2018-07-28T03:04:05.881Z,99826.71
2018-07-28T03:06:37.639Z,99836.48
2018-07-28T03:09:12.039Z,99832.56
2018-07-28T03:11:42.532Z,99831.95
2018-07-28T03:14:12.328Z,99835.15
2018-07-28T03:16:42.656Z,99827.31
2018-07-28T03:19:12.514Z,99825.13
2018-07-28T03:21:42.585Z,99824.22
2018-07-28T03:24:12.478Z,99825.80
2018-07-28T03:26:43.893Z,99821.47
2018-07-28T03:29:14.644Z,99821.16
2018-07-28T03:31:46.328Z,99812.80
2018-07-28T03:34:16.851Z,99821.06
2018-07-28T03:36:47.689Z,99819.11
2018-07-28T03:39:19.981Z,99817.99
2018-07-28T03:41:49.857Z,99819.53
2018-07-28T03:44:20.740Z,99821.19
2018-07-28T03:46:51.606Z,99822.83
2018-07-28T03:49:22.907Z,99823.06
2018-07-28T03:51:54.191Z,99826.36
2018-07-28T03:54:24.982Z,99825.22
2018-07-28T03:56:55.863Z,99820.38
2018-07-28T03:59:26.675Z,99827.39
2018-07-28T04:01:57.615Z,99829.05
2018-07-28T04:04:29.507Z,99831.73
2018-07-28T04:07:00.033Z,99826.36
2018-07-28T04:09:30.723Z,99826.13
2018-07-28T04:12:03.137Z,99829.12
2018-07-28T04:14:32.945Z,99828.91
2018-07-28T04:17:03.910Z,99827.57
2018-07-28T04:19:34.701Z,99830.03
2018-07-28T04:22:05.706Z,99827.95
2018-07-28T04:24:36.612Z,99823.72
2018-07-28T04:27:07.586Z,99819.76
2018-07-28T04:29:38.890Z,99821.11
2018-07-28T04:32:10.215Z,99818.11
2018-07-28T04:34:40.850Z,99817.68
2018-07-28T04:37:11.792Z,99818.42
2018-07-28T04:39:42.785Z,99740.16
2018-07-28T04:42:13.689Z,99816.78
2018-07-28T04:44:44.513Z,99816.04
2018-07-28T04:47:16.096Z,99812.08
2018-07-28T04:49:47.283Z,99794.44
2018-07-28T04:52:17.880Z,99810.47
2018-07-28T04:54:48.713Z,99810.03
2018-07-28T04:57:18.615Z,99811.34
2018-07-28T04:59:49.554Z,99813.30
2018-07-28T05:02:20.939Z,99807.55
2018-07-28T05:04:51.777Z,99805.56
2018-07-28T05:07:22.737Z,99808.92
2018-07-28T05:09:54.054Z,99814.61
2018-07-28T05:12:25.313Z,99813.27
2018-07-28T05:14:55.899Z,99818.53
2018-07-28T05:17:26.820Z,99812.72
2018-07-28T05:19:57.719Z,99816.17
2018-07-28T05:22:28.742Z,99808.77
2018-07-28T05:24:58.657Z,99800.96
2018-07-28T05:27:30.597Z,99790.86
2018-07-28T05:30:00.517Z,99792.60
2018-07-28T05:32:31.905Z,99794.41
2018-07-28T05:35:02.764Z,99783.83
2018-07-28T05:37:33.678Z,99788.08
2018-07-28T05:40:04.771Z,99785.03
2018-07-28T05:42:35.822Z,99779.80
2018-07-28T05:45:07.348Z,99782.41
2018-07-28T05:47:37.869Z,99779.11
2018-07-28T05:50:09.881Z,99783.69
2018-07-28T05:52:40.026Z,99789.06
2018-07-28T05:55:10.872Z,99787.56
2018-07-28T05:57:41.746Z,99786.66
2018-07-28T06:00:12.795Z,99780.95
2018-07-28T06:02:43.899Z,99764.95
2018-07-28T06:05:15.000Z,99780.81
2018-07-28T06:07:45.979Z,99778.05
2018-07-28T06:10:16.947Z,99781.47
2018-07-28T06:12:47.917Z,99778.36
2018-07-28T06:15:18.760Z,99781.19
2018-07-28T06:17:48.674Z,99773.74
2018-07-28T06:20:19.615Z,99778.13
2018-07-28T06:22:50.976Z,99780.45
2018-07-28T06:25:21.852Z,99780.48
2018-07-28T06:27:52.754Z,99778.21
2018-07-28T06:30:23.838Z,99765.19
2018-07-28T06:32:54.826Z,99770.69
2018-07-28T06:35:25.738Z,99776.86
2018-07-28T06:37:56.687Z,99780.95
2018-07-28T06:40:27.669Z,99776.80
2018-07-28T06:42:58.636Z,99771.20
2018-07-28T06:45:28.474Z,99773.72
2018-07-28T06:47:59.946Z,99778.83
2018-07-28T06:50:30.813Z,99770.91
2018-07-28T06:53:02.130Z,99768.05
2018-07-28T06:55:32.882Z,99766.85
2018-07-28T06:58:03.798Z,99762.09
2018-07-28T07:00:34.808Z,99769.34
2018-07-28T07:03:05.818Z,99764.08
2018-07-28T07:05:36.653Z,99761.48
2018-07-28T07:08:07.633Z,99764.53
2018-07-28T07:10:38.583Z,99759.74
2018-07-28T07:13:09.715Z,99767.76
2018-07-28T07:15:40.551Z,99766.56
2018-07-28T07:18:12.144Z,99762.06
2018-07-28T07:20:42.841Z,99696.78
2018-07-28T07:23:14.034Z,99754.95
2018-07-28T07:25:44.746Z,99755.16
2018-07-28T07:28:15.976Z,99757.71
2018-07-28T07:30:46.845Z,99756.23
2018-07-28T07:33:17.937Z,99757.84
2018-07-28T07:35:48.724Z,99761.59
2018-07-28T07:38:19.722Z,99758.25
2018-07-28T07:40:50.643Z,99752.20
2018-07-28T07:43:22.578Z,99748.69
2018-07-28T07:45:52.966Z,99757.55
2018-07-28T07:48:23.865Z,99759.59
2018-07-28T07:50:54.700Z,99755.95
2018-07-28T07:53:25.683Z,99760.19
2018-07-28T07:55:56.564Z,99762.89
2018-07-28T07:58:28.077Z,99761.88
2018-07-28T08:00:58.780Z,99735.57
2018-07-28T08:03:29.675Z,99755.06
2018-07-28T08:06:00.590Z,99756.33
2018-07-28T08:08:31.940Z,99761.31
2018-07-28T08:11:03.083Z,99753.45
2018-07-28T08:13:33.861Z,99740.02
2018-07-28T08:16:04.733Z,99746.72
2018-07-28T08:18:35.713Z,99752.47
2018-07-28T08:21:06.748Z,99745.97
2018-07-28T08:23:38.306Z,99740.95
2018-07-28T08:26:08.918Z,99742.25
2018-07-28T08:28:40.066Z,99751.30
2018-07-28T08:31:10.702Z,99745.41
2018-07-28T08:33:41.615Z,99745.80
2018-07-28T08:36:12.591Z,99747.44
2018-07-28T08:38:44.311Z,99742.30
2018-07-28T08:41:14.848Z,99723.78
2018-07-28T08:43:45.964Z,99740.41
2018-07-28T08:46:17.108Z,99730.25
2018-07-28T08:48:48.218Z,99742.81
2018-07-28T08:51:18.809Z,99742.25
2018-07-28T08:53:49.673Z,99742.83
2018-07-28T08:56:20.617Z,99748.28
2018-07-28T08:58:53.634Z,99753.24
2018-07-28T09:01:23.609Z,99750.27
2018-07-28T09:03:53.696Z,99746.48
2018-07-28T09:06:24.773Z,99741.87
2018-07-28T09:08:55.709Z,99737.23
2018-07-28T09:11:26.571Z,99732.38
2018-07-28T09:13:57.941Z,99731.02
2018-07-28T09:16:28.816Z,99731.02
2018-07-28T09:18:59.873Z,99736.73
2018-07-28T09:21:31.080Z,99730.16
2018-07-28T09:24:01.954Z,99729.35
2018-07-28T09:26:32.774Z,99724.68
2018-07-28T09:29:03.709Z,99726.59
2018-07-28T09:31:34.431Z,99727.11
2018-07-28T09:34:04.952Z,99732.49
2018-07-28T09:36:36.192Z,99726.73
2018-07-28T09:39:10.113Z,99722.88
2018-07-28T09:41:39.981Z,99723.16
2018-07-28T09:44:09.838Z,99720.91
2018-07-28T09:46:39.710Z,99726.66
2018-07-28T09:49:10.743Z,99729.86
2018-07-28T09:51:41.602Z,99733.83
2018-07-28T09:54:23.373Z,99734.63
2018-07-28T09:56:53.140Z,99731.06
2018-07-28T09:59:24.798Z,99724.59
2018-07-28T10:01:54.712Z,99724.55
2018-07-28T10:04:24.670Z,99718.63
2018-07-28T10:06:54.596Z,99721.26
2018-07-28T10:09:24.501Z,99717.09
2018-07-28T10:11:54.351Z,99712.98
2018-07-28T10:14:24.333Z,99713.19
2018-07-28T10:16:54.261Z,99708.25
2018-07-28T10:19:24.685Z,99705.70
2018-07-28T10:21:54.499Z,99711.77
2018-07-28T10:24:25.336Z,99712.82
2018-07-28T10:26:55.304Z,99711.94
2018-07-28T10:29:25.227Z,99704.19
2018-07-28T10:31:55.148Z,99702.55
2018-07-28T10:34:25.805Z,99693.16
2018-07-28T10:36:56.732Z,99699.32
2018-07-28T10:39:27.538Z,99701.75
2018-07-28T10:41:59.601Z,99703.63
2018-07-28T10:44:32.168Z,99702.81
2018-07-28T10:47:02.476Z,99701.97
2018-07-28T10:49:32.431Z,99700.70
2018-07-28T10:52:20.903Z,99703.84
2018-07-28T10:54:51.669Z,99703.89
2018-07-28T10:57:24.286Z,99700.38
2018-07-28T10:59:55.332Z,99697.64
2018-07-28T11:02:25.384Z,99689.69
2018-07-28T11:04:55.226Z,99691.40
2018-07-28T11:07:25.108Z,99690.86
2018-07-28T11:09:55.358Z,99688.20
2018-07-28T11:12:25.706Z,99689.30
2018-07-28T11:14:55.857Z,99683.88
2018-07-28T11:17:26.362Z,99680.92
2018-07-28T11:19:56.581Z,99677.16
2018-07-28T11:22:26.459Z,99673.28
2018-07-28T11:24:56.564Z,99667.88
2018-07-28T11:27:26.409Z,99665.95
2018-07-28T11:29:56.928Z,99663.94
2018-07-28T11:32:37.244Z,99662.56
2018-07-28T11:48:16.481Z,99661.62
2018-07-28T11:50:46.334Z,99664.84
2018-07-28T11:53:16.261Z,99653.75
2018-07-28T11:55:46.164Z,99654.00
2018-07-28T11:58:16.562Z,99649.64
2018-07-28T12:00:46.788Z,99648.63
2018-07-28T12:03:16.952Z,99646.95
2018-07-28T12:05:46.818Z,99650.97
2018-07-28T12:08:16.898Z,99654.81
2018-07-28T12:10:46.844Z,99656.07
2018-07-28T12:13:16.902Z,99656.55
2018-07-28T12:15:46.769Z,99652.34
2018-07-28T12:18:16.916Z,99654.97
2018-07-28T12:20:46.970Z,99643.10
2018-07-28T12:23:16.792Z,99639.86
2018-07-28T12:25:46.911Z,99644.06
2018-07-28T12:28:16.830Z,99644.39
2018-07-28T12:30:47.453Z,99647.16
2018-07-28T12:33:17.289Z,99643.47
2018-07-28T12:35:47.097Z,99636.55
2018-07-28T12:38:16.980Z,99639.10
2018-07-28T12:40:46.834Z,99639.02
2018-07-28T12:43:16.941Z,99632.91
2018-07-28T12:45:46.801Z,99632.97
2018-07-28T12:48:16.897Z,99634.78
2018-07-28T12:50:46.805Z,99633.73
2018-07-28T12:53:16.878Z,99624.52
2018-07-28T12:55:46.837Z,99632.12
2018-07-28T12:58:17.740Z,99627.33
2018-07-28T13:00:47.913Z,99619.39
2018-07-28T13:03:17.869Z,99618.48
2018-07-28T13:05:47.790Z,99618.67
2018-07-28T13:08:17.802Z,99624.84
2018-07-28T13:10:47.788Z,99621.91
2018-07-28T13:13:17.820Z,99627.10
2018-07-28T13:15:47.800Z,99623.45
2018-07-28T13:18:17.821Z,99621.05
2018-07-28T13:20:47.890Z,99613.63
2018-07-28T13:23:18.092Z,99613.30
2018-07-28T13:25:48.160Z,99605.88
2018-07-28T13:28:17.998Z,99605.59
2018-07-28T13:30:47.989Z,99608.01
2018-07-28T13:33:17.933Z,99606.33
2018-07-28T13:35:48.338Z,99608.11
2018-07-28T13:38:18.269Z,99610.02
2018-07-28T13:40:48.279Z,99614.35
2018-07-28T13:43:18.264Z,99608.55
2018-07-28T13:45:48.373Z,99608.05
2018-07-28T13:48:18.216Z,99608.10
2018-07-28T13:50:48.549Z,99608.92
2018-07-28T13:53:18.986Z,99605.20
2018-07-28T13:55:48.802Z,99602.53
2018-07-28T13:58:19.613Z,99602.05
2018-07-28T14:00:49.488Z,99601.96
2018-07-28T14:03:19.440Z,99602.70
2018-07-28T14:05:49.315Z,99606.74
2018-07-28T14:08:19.823Z,99599.61
2018-07-28T14:10:50.574Z,99605.69
2018-07-28T14:13:21.563Z,99604.06
2018-07-28T14:15:52.685Z,99603.67
2018-07-28T14:18:23.746Z,99599.88
2018-07-28T14:20:54.898Z,99598.72
2018-07-28T14:23:25.890Z,99599.93
2018-07-28T14:25:56.965Z,99598.65
2018-07-28T14:28:28.638Z,99593.88
2018-07-28T14:30:58.677Z,99590.09
2018-07-28T14:33:29.558Z,99595.02
2018-07-28T14:36:00.580Z,99597.68
2018-07-28T14:38:31.593Z,99597.77
2018-07-28T14:41:04.181Z,99591.56
2018-07-28T14:43:34.172Z,99592.56
2018-07-28T14:46:04.871Z,99588.04
2018-07-28T14:48:35.904Z,99593.09
2018-07-28T14:51:06.838Z,99594.36
2018-07-28T14:53:37.814Z,99585.45
2018-07-28T14:56:08.652Z,99587.64
2018-07-28T14:58:39.954Z,99590.62
2018-07-28T15:01:10.705Z,99577.45
2018-07-28T15:03:41.565Z,99579.04
2018-07-28T15:06:12.561Z,99580.00
2018-07-28T15:08:43.550Z,99578.97
2018-07-28T15:11:15.485Z,99579.20
2018-07-28T15:13:45.477Z,99577.02
2018-07-28T15:16:17.510Z,99573.98
2018-07-28T15:18:49.019Z,99561.42
2018-07-28T15:21:18.861Z,99569.06
2018-07-28T15:23:50.710Z,99527.92
2018-07-28T15:26:20.552Z,99569.84
2018-07-28T15:28:53.118Z,99566.67
2018-07-28T15:31:23.673Z,99568.21
2018-07-28T15:33:53.524Z,99566.78
2018-07-28T15:36:24.023Z,99567.72
2018-07-28T15:38:54.756Z,99564.61
2018-07-28T15:41:25.610Z,99557.11
2018-07-28T15:43:56.629Z,99556.19
2018-07-28T15:46:27.869Z,99546.33
2018-07-28T15:48:57.822Z,99540.84
2018-07-28T15:51:28.589Z,99546.36
2018-07-28T15:53:59.706Z,99547.57
2018-07-28T15:56:30.605Z,99545.81
2018-07-28T15:59:01.940Z,99538.07
2018-07-28T16:01:32.746Z,99541.83
2018-07-28T16:04:03.590Z,99535.16
2018-07-28T16:06:34.594Z,99538.13
2018-07-28T16:09:08.693Z,99542.60
2018-07-28T16:11:38.535Z,99547.16
2018-07-28T16:14:08.491Z,99537.70
2018-07-28T16:16:38.902Z,99532.64
2018-07-28T16:19:09.696Z,99530.25
2018-07-28T16:21:41.164Z,99543.81
2018-07-28T16:24:11.852Z,99539.70
2018-07-28T16:26:42.712Z,99536.28
2018-07-28T16:29:13.680Z,99524.56
2018-07-28T16:31:45.253Z,99527.56
2018-07-28T16:34:15.991Z,99527.81
2018-07-28T16:36:46.885Z,99541.98
2018-07-28T16:39:17.757Z,99544.08
2018-07-28T16:41:48.626Z,99544.46
2018-07-28T16:44:19.558Z,99539.55
2018-07-28T16:46:50.594Z,99534.07
2018-07-28T16:49:21.545Z,99535.69
2018-07-28T16:51:52.573Z,99544.31
2018-07-28T16:54:23.937Z,99549.47
2018-07-28T16:56:55.667Z,99551.42
2018-07-28T16:59:25.577Z,99545.81
2018-07-28T17:01:56.488Z,99546.81
2018-07-28T17:04:28.080Z,99546.44
2018-07-28T17:06:58.727Z,99544.52
2018-07-28T17:09:30.157Z,99532.64
2018-07-28T17:11:59.989Z,99545.88
2018-07-28T17:14:30.882Z,99549.34
2018-07-28T17:17:01.665Z,99527.05
2018-07-28T17:19:32.678Z,99538.31
2018-07-28T17:22:03.549Z,99544.51
2018-07-28T17:24:34.952Z,99552.29
2018-07-28T17:27:05.774Z,99545.69
2018-07-28T17:29:36.675Z,99555.69
2018-07-28T17:32:08.610Z,99552.88
2018-07-28T17:34:38.605Z,99553.34
2018-07-28T17:37:09.901Z,99553.47
2018-07-28T17:39:40.759Z,99560.42
2018-07-28T17:42:11.665Z,99557.59
2018-07-28T17:44:42.713Z,99566.16
2018-07-28T17:47:13.941Z,99567.02
2018-07-28T17:49:44.736Z,99572.09
2018-07-28T17:52:15.648Z,99572.15
2018-07-28T17:54:46.548Z,99575.23
2018-07-28T17:57:18.854Z,99581.31
2018-07-28T17:59:48.913Z,99583.89
2018-07-28T18:02:19.770Z,99586.47
2018-07-28T18:04:50.635Z,99578.14
2018-07-28T18:07:22.165Z,99583.23
2018-07-28T18:09:52.951Z,99588.25
2018-07-28T18:12:23.773Z,99573.17
2018-07-28T18:14:54.600Z,99575.22
2018-07-28T18:17:25.461Z,99587.56
2018-07-28T18:19:56.893Z,99583.33
2018-07-28T18:22:27.728Z,99587.52
2018-07-28T18:25:06.552Z,99584.08
2018-07-28T18:27:36.345Z,99584.77
2018-07-28T18:30:06.500Z,99582.37
2018-07-28T18:32:36.287Z,99588.77
2018-07-28T18:35:06.977Z,99586.42
2018-07-28T18:37:37.716Z,99591.70
2018-07-28T18:40:07.935Z,99597.52
2018-07-28T18:42:37.824Z,99600.89
2018-07-28T18:45:07.925Z,99601.53
2018-07-28T18:47:37.945Z,99599.41
2018-07-28T18:50:08.848Z,99600.89
2018-07-28T18:52:39.734Z,99602.33
2018-07-28T18:55:11.132Z,99608.69
2018-07-28T18:57:41.960Z,99604.95
2018-07-28T19:00:13.276Z,99611.61
2018-07-28T19:02:44.972Z,99618.80
2018-07-28T19:05:14.973Z,99621.59
2018-07-28T19:07:45.929Z,99602.92
2018-07-28T19:10:18.055Z,99623.05
2018-07-28T19:12:52.993Z,99628.05
2018-07-28T19:15:22.886Z,99624.04
2018-07-28T19:18:57.266Z,99623.55
2018-07-28T19:21:27.271Z,99625.52
2018-07-28T19:24:01.424Z,99629.64
2018-07-28T19:26:32.035Z,99635.15
2018-07-28T19:29:06.958Z,99635.73
2018-07-28T19:31:37.130Z,99638.52
2018-07-28T19:34:07.084Z,99639.64
2018-07-28T19:36:42.161Z,99637.20
2018-07-28T19:39:13.183Z,99644.00
2018-07-28T19:41:47.949Z,99640.75
2018-07-28T19:44:18.137Z,99647.88
2018-07-28T19:46:48.125Z,99641.63
2018-07-28T19:49:18.354Z,99644.10
2018-07-28T19:51:48.281Z,99645.77
2018-07-28T19:54:18.196Z,99646.31
2018-07-28T19:56:48.379Z,99646.05
2018-07-28T19:59:18.405Z,99645.25
2018-07-28T20:01:48.481Z,99653.67
2018-07-28T20:04:18.472Z,99659.67
2018-07-28T20:06:48.504Z,99662.40
2018-07-28T20:09:18.974Z,99661.86
2018-07-28T20:11:49.003Z,99661.86
2018-07-28T20:14:18.864Z,99663.47
2018-07-28T20:16:49.062Z,99662.11
2018-07-28T20:19:18.984Z,99665.92
2018-07-28T20:21:49.401Z,99665.61
2018-07-28T20:24:19.238Z,99669.41
2018-07-28T20:26:49.134Z,99680.00
2018-07-28T20:29:19.149Z,99685.97
2018-07-28T20:31:49.112Z,99689.47
2018-07-28T20:34:19.085Z,99687.02
2018-07-28T20:36:49.032Z,99692.99
2018-07-28T20:39:18.979Z,99689.41
2018-07-28T20:41:49.001Z,99698.64
2018-07-28T20:44:19.061Z,99698.84
2018-07-28T20:46:48.975Z,99697.19
2018-07-28T20:49:18.898Z,99695.53
2018-07-28T20:51:48.867Z,99692.52
2018-07-28T20:54:19.010Z,99705.55
2018-07-28T20:56:48.873Z,99710.67
2018-07-28T20:59:18.925Z,99709.56
2018-07-28T21:01:49.054Z,99712.26
2018-07-28T21:04:19.078Z,99711.95
2018-07-28T21:06:49.113Z,99707.81
2018-07-28T21:09:19.042Z,99706.14
2018-07-28T21:11:49.183Z,99706.95
2018-07-28T21:14:19.227Z,99707.75
2018-07-28T21:16:49.313Z,99710.95
2018-07-28T21:19:19.104Z,99703.33
2018-07-28T21:21:49.004Z,99697.06
2018-07-28T21:24:19.207Z,99701.63
2018-07-28T21:26:49.219Z,99701.63
2018-07-28T21:29:19.323Z,99705.66
2018-07-28T21:31:49.101Z,99705.34
2018-07-28T21:34:19.333Z,99713.45
2018-07-28T21:36:49.211Z,99712.05
2018-07-28T21:39:19.706Z,99707.93
2018-07-28T21:41:49.981Z,99711.95
2018-07-28T21:44:20.284Z,99708.37
2018-07-28T21:46:50.120Z,99712.66
2018-07-28T21:49:20.142Z,99720.48
2018-07-28T21:51:50.109Z,99715.81
2018-07-28T21:54:20.152Z,99713.33
2018-07-28T21:56:50.027Z,99719.55
2018-07-28T21:59:20.070Z,99718.15
2018-07-28T22:01:50.027Z,99712.44
2018-07-28T22:04:25.187Z,99714.25
2018-07-28T22:06:55.201Z,99712.86
2018-07-28T22:09:25.407Z,99711.20
2018-07-28T22:11:55.483Z,99713.88
2018-07-28T22:14:25.527Z,99711.39
2018-07-28T22:16:55.825Z,99708.36
2018-07-28T22:19:25.955Z,99707.23
2018-07-28T22:21:55.950Z,99707.73
2018-07-28T22:24:25.997Z,99709.03
2018-07-28T22:26:55.856Z,99709.27
2018-07-28T22:29:25.891Z,99708.41
2018-07-28T22:31:55.812Z,99711.84
2018-07-28T22:34:25.905Z,99707.12
2018-07-28T22:36:55.985Z,99706.78
2018-07-28T22:39:25.960Z,99709.19
2018-07-28T22:41:55.800Z,99711.34
2018-07-28T22:44:25.913Z,99702.88
2018-07-28T22:46:56.055Z,99708.80
2018-07-28T22:49:27.020Z,99714.71
2018-07-28T22:51:57.297Z,99715.22
2018-07-28T22:54:27.748Z,99712.20
2018-07-28T22:56:57.846Z,99713.28
2018-07-28T22:59:28.026Z,99714.30
2018-07-28T23:01:57.960Z,99711.56
2018-07-28T23:04:27.840Z,99716.08
2018-07-28T23:06:58.235Z,99713.30
2018-07-28T23:09:28.642Z,99706.48
2018-07-28T23:11:58.571Z,99702.90
2018-07-28T23:14:28.907Z,99709.83
2018-07-28T23:16:58.767Z,99700.45
2018-07-28T23:19:28.665Z,99716.09
2018-07-28T23:21:58.507Z,99718.23
2018-07-28T23:24:28.467Z,99718.44
2018-07-28T23:26:58.416Z,99720.80
2018-07-28T23:29:28.458Z,99757.80
2018-07-28T23:31:58.368Z,99729.43
2018-07-28T23:34:29.325Z,99727.70
2018-07-28T23:37:00.042Z,99733.11
2018-07-28T23:39:33.472Z,99744.42
2018-07-28T23:42:03.849Z,99740.02
2018-07-28T23:44:33.796Z,99741.66
2018-07-28T23:47:03.720Z,99742.61
2018-07-28T23:49:34.760Z,99746.95
2018-07-28T23:52:05.737Z,99735.20
2018-07-28T23:54:36.714Z,99730.66
2018-07-28T23:57:07.768Z,99731.82
2018-07-28T23:59:38.769Z,99740.63
